createdAt,value
2023-04-22T00:01:18.766Z,99926.68
2023-04-22T00:06:26.266Z,99927.96
2023-04-22T00:11:33.739Z,99920.21
2023-04-22T00:16:41.275Z,99918.50
2023-04-22T00:21:48.969Z,99911.43
2023-04-22T00:26:56.561Z,99905.40
2023-04-22T00:32:04.192Z,99901.77
2023-04-22T00:37:11.788Z,99902.50
2023-04-22T00:42:19.985Z,99898.20
2023-04-22T00:47:28.364Z,99894.38
2023-04-22T00:52:35.741Z,99894.55
2023-04-22T00:57:43.375Z,99890.70
2023-04-22T01:02:51.591Z,99887.56
2023-04-22T01:07:59.362Z,99887.36
2023-04-22T01:13:07.002Z,99892.96
2023-04-22T01:18:14.489Z,99892.46
2023-04-22T01:23:23.903Z,99888.28
2023-04-22T01:28:32.716Z,99892.72
2023-04-22T01:33:40.897Z,99892.65
2023-04-22T01:38:48.928Z,99887.19
2023-04-22T01:43:59.815Z,99885.25
2023-04-22T01:49:08.130Z,99878.77
2023-04-22T01:54:16.499Z,99883.23
2023-04-22T01:59:24.219Z,99880.59
2023-04-22T02:04:32.055Z,99878.83
2023-04-22T02:09:39.863Z,99881.36
2023-04-22T02:14:47.496Z,99880.09
2023-04-22T02:19:55.131Z,99875.00
2023-04-22T02:25:03.823Z,99877.72
2023-04-22T02:30:13.374Z,99874.86
2023-04-22T02:35:21.221Z,99872.34
2023-04-22T02:40:31.448Z,99865.52
2023-04-22T02:45:39.086Z,99867.94
2023-04-22T02:50:46.502Z,99866.42
2023-04-22T02:55:56.123Z,99847.46
2023-04-22T03:01:03.721Z,99865.83
2023-04-22T03:06:12.042Z,99868.64
2023-04-22T03:11:19.469Z,99871.66
2023-04-22T03:16:28.586Z,99873.10
2023-04-22T03:21:36.569Z,99872.96
2023-04-22T03:26:44.367Z,99870.39
2023-04-22T03:31:51.786Z,99870.08
2023-04-22T03:36:59.906Z,99873.79
2023-04-22T03:42:08.480Z,99875.22
2023-04-22T03:47:17.746Z,99874.73
2023-04-22T03:52:29.008Z,99879.27
2023-04-22T03:57:38.967Z,99883.09
2023-04-22T04:02:46.897Z,99888.13
2023-04-22T04:07:57.029Z,99885.80
2023-04-22T04:13:04.913Z,99888.98
2023-04-22T04:18:19.704Z,99891.95
2023-04-22T04:23:27.628Z,99889.33
2023-04-22T04:28:36.615Z,99888.25
2023-04-22T04:33:44.488Z,99888.55
2023-04-22T04:38:53.716Z,99895.75
2023-04-22T04:44:03.685Z,99891.26
2023-04-22T04:49:14.647Z,99888.23
2023-04-22T04:54:32.756Z,99892.89
2023-04-22T04:59:40.906Z,99888.33
2023-04-22T05:04:48.894Z,99886.03
2023-04-22T05:09:56.744Z,99887.64
2023-04-22T05:15:05.207Z,99891.17
2023-04-22T05:20:14.331Z,99892.23
2023-04-22T05:25:22.508Z,99890.10
2023-04-22T05:30:37.581Z,99895.13
2023-04-22T05:35:45.445Z,99887.52
2023-04-22T05:40:53.688Z,99886.92
2023-04-22T05:46:01.452Z,99884.33
2023-04-22T05:51:09.447Z,99881.52
2023-04-22T05:56:17.622Z,99877.57
2023-04-22T06:01:25.576Z,99879.77
2023-04-22T06:06:35.392Z,99876.19
2023-04-22T06:11:43.121Z,99875.21
2023-04-22T06:16:51.135Z,99879.20
2023-04-22T06:21:58.796Z,99876.34
2023-04-22T06:27:06.373Z,99871.81
2023-04-22T06:32:13.915Z,99871.30
2023-04-22T06:37:22.338Z,99860.41
2023-04-22T06:42:30.443Z,99867.00
2023-04-22T06:47:57.649Z,99863.39
2023-04-22T06:53:14.843Z,99860.45
2023-04-22T06:58:22.365Z,99858.63
2023-04-22T07:03:30.217Z,99855.22
2023-04-22T07:09:04.556Z,99858.50
2023-04-22T07:14:12.367Z,99855.71
2023-04-22T07:19:19.955Z,99853.27
2023-04-22T07:24:27.365Z,99847.44
2023-04-22T07:29:35.682Z,99845.64
2023-04-22T07:34:43.126Z,99840.02
2023-04-22T07:39:50.641Z,99841.58
2023-04-22T07:44:57.993Z,99842.13
2023-04-22T07:50:05.782Z,99832.44
2023-04-22T07:55:13.898Z,99829.13
2023-04-22T08:00:21.843Z,99830.47
2023-04-22T08:05:29.332Z,99827.80
2023-04-22T08:10:36.931Z,99829.98
2023-04-22T08:15:44.658Z,99833.44
2023-04-22T08:20:52.061Z,99830.94
2023-04-22T08:25:59.553Z,99826.30
2023-04-22T08:31:07.065Z,99823.61
2023-04-22T08:36:14.690Z,99819.90
2023-04-22T08:41:24.926Z,99820.79
2023-04-22T08:46:32.655Z,99820.30
2023-04-22T08:51:40.546Z,99826.61
2023-04-22T08:56:48.938Z,99826.80
2023-04-22T09:01:58.794Z,99824.79
2023-04-22T09:07:07.084Z,99822.39
2023-04-22T09:12:14.452Z,99826.94
2023-04-22T09:17:32.359Z,99816.84
2023-04-22T09:22:44.803Z,99816.91
2023-04-22T09:27:56.417Z,99812.07
2023-04-22T09:33:05.945Z,99808.85
2023-04-22T09:38:14.355Z,99802.89
2023-04-22T09:43:23.174Z,99802.63
2023-04-22T09:48:30.490Z,99800.58
2023-04-22T09:53:40.976Z,99795.17
2023-04-22T09:58:54.212Z,99791.52
2023-04-22T10:04:01.968Z,99785.79
2023-04-22T10:09:10.170Z,99782.14
2023-04-22T10:14:17.555Z,99779.49
2023-04-22T10:19:26.989Z,99771.84
2023-04-22T10:24:38.967Z,99767.60
2023-04-22T10:29:46.336Z,99765.41
2023-04-22T10:35:09.527Z,99762.65
2023-04-22T10:40:20.260Z,99760.08
2023-04-22T10:45:29.680Z,99757.97
2023-04-22T10:50:41.072Z,99754.73
2023-04-22T10:55:58.154Z,99747.13
2023-04-22T11:01:18.954Z,99750.40
2023-04-22T11:06:28.584Z,99748.29
2023-04-22T11:11:36.297Z,99747.40
2023-04-22T11:16:50.412Z,99744.02
2023-04-22T11:21:59.139Z,99743.23
2023-04-22T11:27:07.514Z,99740.27
2023-04-22T11:32:15.979Z,99736.77
2023-04-22T11:37:25.049Z,99734.88
2023-04-22T11:42:32.697Z,99729.02
2023-04-22T11:47:40.513Z,99722.95
2023-04-22T11:52:50.778Z,99723.98
2023-04-22T11:58:03.503Z,99721.88
2023-04-22T12:03:17.878Z,99720.16
2023-04-22T12:08:27.811Z,99718.38
2023-04-22T12:13:42.397Z,99714.28
2023-04-22T12:18:55.027Z,99709.98
2023-04-22T12:24:05.431Z,99702.75
2023-04-22T12:29:12.974Z,99703.02
2023-04-22T12:34:21.353Z,99700.63
2023-04-22T12:39:29.289Z,99701.14
2023-04-22T12:44:37.152Z,99693.73
2023-04-22T12:49:48.866Z,99687.16
2023-04-22T12:54:56.420Z,99674.13
2023-04-22T13:00:04.695Z,99670.92
2023-04-22T13:05:13.402Z,99670.39
2023-04-22T13:10:23.744Z,99663.92
2023-04-22T13:15:32.123Z,99660.59
2023-04-22T13:20:40.571Z,99658.64
2023-04-22T13:25:49.542Z,99654.48
2023-04-22T13:30:57.175Z,99655.53
2023-04-22T13:36:04.862Z,99652.98
2023-04-22T13:41:12.512Z,99651.00
2023-04-22T13:46:20.150Z,99651.84
2023-04-22T13:51:27.908Z,99646.83
2023-04-22T13:56:35.807Z,99647.27
2023-04-22T14:01:43.381Z,99649.19
2023-04-22T14:06:50.945Z,99646.33
2023-04-22T14:11:58.521Z,99644.71
2023-04-22T14:17:06.084Z,99640.81
2023-04-22T14:22:13.659Z,99642.46
2023-04-22T14:27:22.005Z,99638.25
2023-04-22T14:32:29.852Z,99634.99
2023-04-22T14:37:37.524Z,99635.09
2023-04-22T14:42:45.391Z,99629.02
2023-04-22T14:47:54.112Z,99619.59
2023-04-22T14:53:02.020Z,99617.55
2023-04-22T14:58:09.824Z,99618.01
2023-04-22T15:03:17.655Z,99619.06
2023-04-22T15:08:25.849Z,99622.04
2023-04-22T15:13:33.623Z,99613.16
2023-04-22T15:18:41.273Z,99609.25
2023-04-22T15:23:49.028Z,99610.39
2023-04-22T15:28:56.937Z,99609.21
2023-04-22T15:34:04.423Z,99610.36
2023-04-22T15:39:12.289Z,99610.21
2023-04-22T15:44:20.250Z,99607.99
2023-04-22T15:49:27.993Z,99603.41
2023-04-22T15:54:35.945Z,99599.75
2023-04-22T15:59:43.838Z,99602.79
2023-04-22T16:04:51.490Z,99602.64
2023-04-22T16:09:59.010Z,99600.58
2023-04-22T16:15:07.374Z,99590.91
2023-04-22T16:20:15.834Z,99591.14
2023-04-22T16:25:23.724Z,99593.38
2023-04-22T16:30:31.590Z,99587.55
2023-04-22T16:35:38.914Z,99583.98
2023-04-22T16:40:46.391Z,99582.75
2023-04-22T16:45:54.215Z,99577.98
2023-04-22T16:51:01.659Z,99577.65
2023-04-22T16:56:09.611Z,99577.02
2023-04-22T17:01:16.865Z,99571.91
2023-04-22T17:06:24.699Z,99571.85
2023-04-22T17:11:32.725Z,99571.15
2023-04-22T17:16:41.109Z,99568.92
2023-04-22T17:21:48.785Z,99575.88
2023-04-22T17:26:56.300Z,99576.96
2023-04-22T17:32:03.880Z,99584.52
2023-04-22T17:37:11.554Z,99587.05
2023-04-22T17:42:19.364Z,99589.81
2023-04-22T17:47:27.033Z,99597.28
2023-04-22T17:52:34.478Z,99595.52
2023-04-22T17:57:42.703Z,99601.23
2023-04-22T18:02:50.541Z,99594.11
2023-04-22T18:08:02.986Z,99600.03
2023-04-22T18:13:10.817Z,99605.49
2023-04-22T18:18:18.443Z,99610.66
2023-04-22T18:23:27.875Z,99614.42
2023-04-22T18:28:35.212Z,99615.02
2023-04-22T18:33:43.011Z,99617.97
2023-04-22T18:38:50.659Z,99617.09
2023-04-22T18:43:58.128Z,99614.39
2023-04-22T18:49:06.007Z,99623.16
2023-04-22T18:54:14.033Z,99628.73
2023-04-22T18:59:22.611Z,99623.57
2023-04-22T19:04:30.467Z,99626.77
2023-04-22T19:09:38.819Z,99628.05
2023-04-22T19:14:47.665Z,99627.91
2023-04-22T19:19:55.273Z,99629.48
2023-04-22T19:25:02.993Z,99626.84
2023-04-22T19:30:12.692Z,99631.66
2023-04-22T19:35:21.542Z,99625.55
2023-04-22T19:40:29.784Z,99632.36
2023-04-22T19:45:37.187Z,99633.05
2023-04-22T19:50:46.564Z,99625.10
2023-04-22T19:55:55.014Z,99623.20
2023-04-22T20:01:04.382Z,99624.42
2023-04-22T20:06:14.228Z,99630.56
2023-04-22T20:11:22.740Z,99633.52
2023-04-22T20:16:31.465Z,99633.96
2023-04-22T20:21:40.715Z,99626.14
2023-04-22T20:26:49.960Z,99620.77
2023-04-22T20:31:59.555Z,99624.77
2023-04-22T20:37:10.951Z,99622.80
2023-04-22T20:42:18.703Z,99619.68
2023-04-22T20:47:27.978Z,99620.10
2023-04-22T20:52:35.534Z,99624.37
2023-04-22T20:57:43.045Z,99622.79
2023-04-22T21:02:51.221Z,99625.31
2023-04-22T21:08:02.047Z,99621.90
2023-04-22T21:13:10.123Z,99624.06
2023-04-22T21:18:18.668Z,99616.10
2023-04-22T21:23:27.474Z,99616.84
2023-04-22T21:28:35.898Z,99616.10
2023-04-22T21:33:43.490Z,99614.44
2023-04-22T21:38:51.739Z,99608.19
2023-04-22T21:43:59.599Z,99607.23
2023-04-22T21:49:07.420Z,99609.56
2023-04-22T21:54:15.083Z,99613.48
2023-04-22T21:59:25.073Z,99616.16
2023-04-22T22:04:33.184Z,99614.39
2023-04-22T22:09:42.049Z,99618.10
2023-04-22T22:14:51.129Z,99619.62
2023-04-22T22:19:58.934Z,99618.11
2023-04-22T22:25:07.041Z,99623.77
2023-04-22T22:30:15.911Z,99619.19
2023-04-22T22:35:24.159Z,99621.47
2023-04-22T22:40:32.308Z,99620.05
2023-04-22T22:45:40.080Z,99616.35
2023-04-22T22:50:49.338Z,99616.02
2023-04-22T22:55:57.106Z,99613.44
2023-04-22T23:01:05.551Z,99615.48
2023-04-22T23:06:13.278Z,99618.23
2023-04-22T23:11:20.770Z,99616.23
2023-04-22T23:16:28.762Z,99616.48
2023-04-22T23:21:36.678Z,99607.52
2023-04-22T23:26:44.666Z,99610.99
2023-04-22T23:31:53.723Z,99606.62
2023-04-22T23:37:04.286Z,99606.63
2023-04-22T23:42:12.441Z,99608.38
2023-04-22T23:47:20.034Z,99603.69
2023-04-22T23:52:27.530Z,99602.66
2023-04-22T23:57:36.630Z,99600.88
